Time;durP1;ratioP1;P1;durP2;ratioP2;P2;SDS_P1;SDS_P2;PMS_P1;PMS_P2;Temp;Humidity;BMP_temperature;BMP_pressure;BME280_temperature;BME280_humidity;BME280_pressure;Samples;Min_cycle;Max_cycle;Signal;HPM_P1;HPM_P2
2022/11/16 00:00:02;;;;;;;10.27;5.95;;;4.50;99.90;;;4.70;100.00;98615.56;5148466;27;41220;-77
2022/11/16 00:02:33;;;;;;;9.90;6.05;;;4.40;99.90;;;4.68;100.00;98613.16;5150244;27;39323;-76
2022/11/16 00:05:01;;;;;;;10.18;6.10;;;4.40;99.90;;;4.77;100.00;98622.16;5150901;27;40083;-75
2022/11/16 00:07:31;;;;;;;12.15;7.03;;;4.40;99.90;;;4.69;100.00;98620.16;5148237;27;42168;-78
2022/11/16 00:09:59;;;;;;;11.32;6.80;;;4.40;99.90;;;4.58;100.00;98614.13;5148264;27;42056;-78
2022/11/16 00:12:27;;;;;;;11.10;5.82;;;4.40;99.90;;;4.68;100.00;98613.94;5147328;27;40313;-78
2022/11/16 00:14:57;;;;;;;11.68;6.60;;;4.40;99.90;;;4.71;100.00;98617.16;5148014;27;41057;-79
2022/11/16 00:17:26;;;;;;;11.32;6.15;;;4.30;99.90;;;4.61;100.00;98608.19;5148267;27;41483;-77
2022/11/16 00:19:54;;;;;;;11.50;6.68;;;4.20;99.90;;;4.48;100.00;98604.31;5147263;27;41790;-77
2022/11/16 00:22:23;;;;;;;11.13;6.50;;;4.20;99.90;;;4.40;100.00;98606.91;5150202;27;40147;-78
2022/11/16 00:24:51;;;;;;;11.68;6.38;;;4.10;99.90;;;4.46;100.00;98603.81;5148282;27;40449;-77
2022/11/16 00:27:20;;;;;;;13.52;6.10;;;4.00;99.90;;;4.24;100.00;98599.06;5148068;27;41778;-78
2022/11/16 00:29:48;;;;;;;12.23;6.60;;;4.00;99.90;;;4.22;100.00;98601.22;5150093;27;40169;-77
2022/11/16 00:32:18;;;;;;;14.32;6.78;;;3.90;99.90;;;4.23;100.00;98602.03;5149986;27;39809;-76
2022/11/16 00:34:47;;;;;;;11.73;6.43;;;3.90;99.90;;;4.14;100.00;98604.56;5147777;27;40000;-78
2022/11/16 00:37:15;;;;;;;11.57;6.00;;;3.90;99.90;;;4.26;100.00;98607.63;5149683;27;40987;-78
2022/11/16 00:39:43;;;;;;;13.10;6.30;;;3.90;99.90;;;4.30;100.00;98600.59;5132146;27;40225;-77
2022/11/16 00:42:14;;;;;;;11.98;6.47;;;3.90;99.90;;;4.30;100.00;98597.91;5147942;27;40391;-78
2022/11/16 00:44:42;;;;;;;12.10;6.38;;;3.90;99.90;;;4.12;100.00;98590.66;5147812;27;40237;-78
2022/11/16 00:47:11;;;;;;;11.15;6.10;;;3.70;99.90;;;3.90;100.00;98592.00;5149258;27;41222;-76
2022/11/16 00:49:41;;;;;;;13.73;6.72;;;3.60;99.90;;;3.78;100.00;98591.63;5132799;27;40038;-78
2022/11/16 00:52:09;;;;;;;12.57;6.47;;;3.60;99.90;;;3.75;100.00;98584.16;5149786;27;39864;-77
2022/11/16 00:54:38;;;;;;;12.60;6.63;;;3.50;99.90;;;3.63;100.00;98594.53;5147699;27;40047;-76
2022/11/16 00:57:07;;;;;;;13.93;7.20;;;3.50;99.90;;;3.52;100.00;98593.84;5132212;27;40553;-76
2022/11/16 00:59:35;;;;;;;12.07;6.78;;;3.50;99.90;;;3.48;100.00;98599.00;5132465;27;40553;-77
2022/11/16 01:02:04;;;;;;;11.90;6.70;;;3.50;99.90;;;3.47;100.00;98593.91;5149673;27;40039;-78
2022/11/16 01:04:32;;;;;;;13.77;6.85;;;3.50;99.90;;;3.44;100.00;98592.59;5132582;27;39943;-78
2022/11/16 01:07:02;;;;;;;12.45;6.82;;;3.40;99.90;;;3.57;100.00;98586.53;5147542;27;41771;-76
2022/11/16 01:09:31;;;;;;;13.63;6.85;;;3.40;99.90;;;3.60;100.00;98585.97;5132400;27;40882;-78
2022/11/16 01:12:08;;;;;;;12.23;6.78;;;3.40;99.90;;;3.64;100.00;98590.75;5148961;27;40964;-76
2022/11/16 01:14:36;;;;;;;14.13;6.95;;;3.40;99.90;;;3.58;100.00;98593.50;5132312;27;39292;-76
2022/11/16 01:17:06;;;;;;;13.18;6.72;;;3.30;99.90;;;3.56;100.00;98589.50;5147388;27;41712;-76
2022/11/16 01:19:35;;;;;;;12.85;6.57;;;3.30;99.90;;;3.59;100.00;98600.47;5131955;27;40434;-76
2022/11/16 01:22:05;;;;;;;13.02;6.93;;;3.20;99.90;;;3.58;100.00;98598.88;5149452;27;41600;-76
2022/11/16 01:24:34;;;;;;;12.90;6.78;;;3.30;99.90;;;3.64;100.00;98601.50;5146602;27;40719;-78
2022/11/16 01:27:02;;;;;;;12.90;6.70;;;3.20;99.90;;;3.64;100.00;98601.50;5149608;27;42274;-77
2022/11/16 01:29:34;;;;;;;12.48;6.88;;;3.20;99.90;;;3.58;100.00;98598.88;5131969;27;40480;-77
2022/11/16 01:32:03;;;;;;;12.32;6.43;;;3.20;99.90;;;3.67;100.00;98600.91;5131525;27;39778;-78
2022/11/16 01:34:33;;;;;;;15.02;6.78;;;3.30;99.90;;;3.78;100.00;98602.38;5145937;27;39767;-79
2022/11/16 01:37:09;;;;;;;13.85;6.85;;;3.40;99.90;;;3.89;100.00;98597.69;5148787;27;42078;-78
2022/11/16 01:39:41;;;;;;;10.55;6.43;;;3.40;99.90;;;3.96;100.00;98598.91;5148715;27;41098;-78
2022/11/16 01:42:17;;;;;;;13.07;6.60;;;3.50;99.90;;;4.08;100.00;98595.00;5145310;27;40149;-79
2022/11/16 01:45:04;;;;;;;11.65;5.82;;;3.50;99.90;;;4.09;100.00;98605.44;5131822;27;39044;-78
2022/11/16 01:47:33;;;;;;;11.18;5.70;;;3.50;99.90;;;4.22;100.00;98600.44;5146915;27;41664;-77
2022/11/16 01:50:09;;;;;;;10.93;5.05;;;3.60;99.90;;;4.29;100.00;98600.88;5145760;27;42959;-75
2022/11/16 01:52:45;;;;;;;10.15;5.40;;;3.70;99.90;;;4.16;100.00;98597.03;5149423;27;39568;-77
2022/11/16 01:55:15;;;;;;;7.22;3.90;;;3.70;99.90;;;4.19;100.00;98596.47;5145583;27;40126;-77
2022/11/16 01:58:06;;;;;;;9.15;4.55;;;3.70;99.90;;;4.16;100.00;98599.72;5148856;27;40560;-76
2022/11/16 02:00:37;;;;;;;7.68;4.00;;;3.70;99.90;;;4.21;100.00;98599.66;5134713;27;41014;-76
2022/11/16 02:03:27;;;;;;;8.65;4.63;;;3.70;99.90;;;4.19;100.00;98593.78;5152164;27;40772;-78
2022/11/16 02:06:20;;;;;;;8.05;4.20;;;3.70;99.90;;;4.23;100.00;98597.47;5135094;27;39508;-77
2022/11/16 02:12:22;;;;;;;8.07;4.22;;;3.70;99.90;;;4.19;100.00;98598.31;5148953;27;40971;-77
2022/11/16 02:15:11;;;;;;;8.20;4.55;;;3.70;99.90;;;4.15;100.00;98590.06;5152390;27;39911;-76
2022/11/16 02:17:51;;;;;;;8.48;4.60;;;3.70;99.90;;;4.21;100.00;98599.66;5152029;27;40271;-77
2022/11/16 02:20:54;;;;;;;9.95;5.00;;;3.70;99.90;;;4.18;100.00;98594.84;5149676;27;41318;-76
2022/11/16 02:24:16;;;;;;;7.15;3.95;;;3.70;99.90;;;4.14;100.00;98588.47;5151963;27;40757;-76
2022/11/16 02:27:33;;;;;;;6.55;2.88;;;3.80;99.90;;;4.14;100.00;98591.16;5152374;27;39715;-78
2022/11/16 02:30:04;;;;;;;5.53;2.60;;;3.80;99.90;;;4.31;100.00;98594.09;5152002;27;39360;-77
2022/11/16 02:32:37;;;;;;;5.00;2.33;;;3.80;99.90;;;4.36;100.00;98595.13;5132573;27;41905;-76
2022/11/16 02:35:13;;;;;;;5.18;2.42;;;3.80;99.90;;;4.31;100.00;98604.84;5149967;27;41333;-76
2022/11/16 02:37:49;;;;;;;5.63;2.40;;;3.80;99.90;;;4.37;100.00;98602.09;5151883;27;39620;-77
2022/11/16 02:40:20;;;;;;;5.03;2.33;;;3.80;99.90;;;4.28;100.00;98600.06;5151644;27;39236;-78
2022/11/16 02:42:55;;;;;;;6.03;2.75;;;3.80;99.90;;;4.27;100.00;98598.47;5133978;27;41500;-76
2022/11/16 02:45:30;;;;;;;5.00;2.33;;;3.80;99.90;;;4.40;100.00;98596.94;5133965;27;41504;-76
2022/11/16 02:48:05;;;;;;;5.38;2.90;;;3.90;99.90;;;4.38;100.00;98601.00;5151302;27;40346;-78
2022/11/16 02:50:35;;;;;;;7.60;3.60;;;3.90;99.90;;;4.37;100.00;98600.22;5148394;27;39916;-77
2022/11/16 02:53:04;;;;;;;6.93;3.60;;;3.90;99.90;;;4.23;100.00;98605.50;5151641;27;41222;-78
2022/11/16 02:55:36;;;;;;;4.68;2.35;;;3.80;99.90;;;4.18;100.00;98600.22;5133735;27;40823;-77
2022/11/16 02:58:09;;;;;;;6.57;2.53;;;3.80;99.90;;;4.18;100.00;98602.91;5151545;27;41595;-79
2022/11/16 03:00:46;;;;;;;4.78;2.17;;;3.90;99.90;;;4.23;100.00;98602.81;5133874;27;40648;-77
2022/11/16 03:03:28;;;;;;;4.35;2.22;;;3.90;99.90;;;4.29;100.00;98607.03;5151751;27;42059;-77
2022/11/16 03:06:03;;;;;;;5.95;2.42;;;3.90;99.90;;;4.28;100.00;98605.44;5133981;27;40850;-78
2022/11/16 03:08:38;;;;;;;4.20;2.05;;;3.90;99.90;;;4.10;100.00;98608.94;5134320;27;38979;-79
2022/11/16 03:14:09;;;;;;;4.22;2.60;;;3.90;99.90;;;4.21;100.00;98610.38;5103672;27;41096;-77
2022/11/16 03:16:43;;;;;;;3.95;2.30;;;3.90;99.90;;;4.38;100.00;98603.69;5134604;27;39977;-77
2022/11/16 03:19:17;;;;;;;4.97;2.78;;;3.90;99.90;;;4.47;100.00;98607.31;5134236;27;40522;-78
2022/11/16 03:21:49;;;;;;;3.53;2.38;;;3.90;99.90;;;4.52;100.00;98611.81;5151110;27;40275;-77
2022/11/16 03:24:20;;;;;;;4.75;2.75;;;3.90;99.90;;;4.56;100.00;98610.13;5147672;27;42399;-75
2022/11/16 03:26:59;;;;;;;5.10;2.55;;;3.90;99.90;;;4.45;100.00;98604.13;5148871;27;41325;-76
2022/11/16 03:29:35;;;;;;;5.32;2.90;;;3.90;99.90;;;4.24;100.00;98609.00;5148086;27;40011;-76
2022/11/16 03:32:18;;;;;;;4.47;2.65;;;3.90;99.90;;;4.28;100.00;98616.16;5133801;27;39778;-78
2022/11/16 03:34:56;;;;;;;6.18;3.10;;;3.90;99.90;;;4.30;100.00;98613.19;5133681;27;41930;-78
2022/11/16 03:37:26;;;;;;;5.25;3.10;;;3.80;99.90;;;4.30;100.00;98611.34;5150922;27;40859;-76
2022/11/16 03:39:56;;;;;;;4.85;3.10;;;3.90;99.90;;;4.20;100.00;98616.84;5151229;27;40996;-78
2022/11/16 03:42:27;;;;;;;3.92;2.40;;;3.80;99.90;;;3.99;100.00;98607.47;5147585;27;40571;-79
2022/11/16 03:44:57;;;;;;;4.05;2.53;;;3.80;99.90;;;3.99;100.00;98612.84;5150596;27;41580;-79
2022/11/16 03:47:28;;;;;;;3.50;2.47;;;3.70;99.90;;;4.01;100.00;98613.38;5147567;27;41637;-78
2022/11/16 03:49:57;;;;;;;4.55;2.40;;;3.80;99.90;;;4.08;100.00;98611.09;5150340;27;41471;-78
2022/11/16 03:52:26;;;;;;;3.78;2.28;;;3.80;99.90;;;4.14;100.00;98615.31;5147127;27;40313;-79
2022/11/16 03:54:54;;;;;;;4.25;2.13;;;3.80;99.90;;;4.07;100.00;98604.16;5149381;27;41624;-79
2022/11/16 03:57:25;;;;;;;3.75;2.22;;;3.80;99.90;;;4.27;100.00;98614.59;5132764;27;40056;-78
2022/11/16 03:59:57;;;;;;;2.50;1.70;;;3.80;99.90;;;4.08;100.00;98616.47;5115142;27;39609;-81
2022/11/16 04:02:28;;;;;;;3.20;1.88;;;3.80;99.90;;;3.91;100.00;98623.16;5150371;27;39367;-79
2022/11/16 04:24:40;;;;;;;2.13;1.30;;;3.40;99.90;;;3.48;100.00;98644.59;5114596;27;39762;-79
2022/11/16 04:30:01;;;;;;;2.10;1.40;;;3.30;99.90;;;3.37;100.00;98645.78;5148125;27;42444;-79
2022/11/16 04:38:12;;;;;;;1.40;1.08;;;3.00;99.90;;;3.23;100.00;98648.34;5127960;27;42754;-79
2022/11/16 04:40:40;;;;;;;2.75;1.48;;;2.90;99.90;;;3.21;100.00;98642.44;5147576;27;42082;-79
2022/11/16 04:43:11;;;;;;;1.65;1.10;;;2.90;99.90;;;3.26;100.00;98644.28;5152813;27;41848;-78
2022/11/16 04:48:35;;;;;;;2.05;1.20;;;2.90;99.90;;;3.07;100.00;98653.06;5133640;27;41444;-79
2022/11/16 04:51:06;;;;;;;3.20;1.40;;;2.90;99.90;;;3.08;100.00;98654.66;5117712;27;41771;-79
2022/11/16 04:53:36;;;;;;;1.40;1.20;;;2.90;99.90;;;3.22;100.00;98660.94;5111305;27;40239;-76
2022/11/16 04:56:24;;;;;;;1.83;1.25;;;2.90;99.90;;;3.15;100.00;98659.69;5148780;27;40050;-76
2022/11/16 04:58:53;;;;;;;1.92;1.27;;;2.90;99.90;;;3.02;100.00;98655.78;5152331;27;41670;-76
2022/11/16 05:02:06;;;;;;;2.00;1.20;;;2.80;99.90;;;3.05;100.00;98660.56;5134846;27;39834;-75
2022/11/16 05:04:11;;;;;;;2.17;1.50;;;2.80;99.90;;;3.09;100.00;98655.47;5121509;27;38946;-78
2022/11/16 05:06:42;;;;;;;2.20;1.40;;;2.80;99.90;;;2.93;100.00;98662.81;5161128;27;39974;-77
2022/11/16 05:09:11;;;;;;;3.85;1.58;;;2.70;99.90;;;2.90;100.00;98663.38;5154734;27;42555;-79
2022/11/16 05:11:40;;;;;;;1.88;1.30;;;2.70;99.90;;;2.92;100.00;98671.97;5146508;27;42115;-77
2022/11/16 05:14:10;;;;;;;3.00;1.48;;;2.70;99.90;;;2.93;100.00;98668.19;5152552;27;40712;-78
2022/11/16 05:16:39;;;;;;;1.90;1.45;;;2.70;99.90;;;2.83;100.00;98680.59;5153708;27;39444;-74
2022/11/16 05:21:55;;;;;;;2.63;1.35;;;2.70;99.90;;;2.68;100.00;98678.03;5149203;27;42070;-77
2022/11/16 05:24:32;;;;;;;2.15;1.42;;;2.60;99.90;;;2.61;100.00;98682.91;5152630;27;39812;-75
2022/11/16 05:27:04;;;;;;;2.35;1.70;;;2.60;99.90;;;2.61;100.00;98688.28;5149401;27;40000;-78
2022/11/16 05:29:33;;;;;;;2.75;1.50;;;2.50;99.90;;;2.58;100.00;98688.81;5149354;27;41796;-76
2022/11/16 05:32:03;;;;;;;1.85;1.08;;;2.50;99.90;;;2.50;100.00;98682.97;5148954;27;41991;-79
2022/11/16 05:34:33;;;;;;;1.80;1.42;;;2.50;99.90;;;2.54;100.00;98693.13;5149990;27;41332;-78
2022/11/16 05:37:04;;;;;;;2.15;1.50;;;2.50;99.90;;;2.53;100.00;98696.91;5152776;27;40635;-76
2022/11/16 05:39:32;;;;;;;2.45;1.77;;;2.50;99.90;;;2.63;100.00;98694.13;5138082;27;40313;-77
2022/11/16 05:42:01;;;;;;;3.20;1.98;;;2.50;99.90;;;2.77;100.00;98697.00;5147676;27;41424;-78
2022/11/16 05:44:29;;;;;;;3.17;1.75;;;2.50;99.90;;;2.64;100.00;98703.78;5153857;27;40494;-77
2022/11/16 05:46:58;;;;;;;4.28;1.80;;;2.50;99.90;;;2.66;100.00;98701.63;5155866;27;39136;-76
2022/11/16 05:49:26;;;;;;;2.63;1.63;;;2.50;99.90;;;2.66;100.00;98698.94;5152970;27;41680;-79
2022/11/16 05:51:55;;;;;;;2.67;1.70;;;2.40;99.90;;;2.48;100.00;98701.19;5156187;27;41426;-79
2022/11/16 05:54:26;;;;;;;2.38;1.67;;;2.40;99.90;;;2.50;100.00;98704.41;5153287;27;39605;-78
2022/11/16 05:56:55;;;;;;;2.83;1.80;;;2.40;99.90;;;2.54;100.00;98719.91;5155555;27;39673;-77
2022/11/16 05:59:24;;;;;;;2.72;1.67;;;2.40;99.90;;;2.56;100.00;98707.06;5138151;27;42020;-79
2022/11/16 06:01:56;;;;;;;2.92;2.05;;;2.30;99.90;;;2.75;100.00;98705.31;5155582;27;40588;-79
2022/11/16 06:04:26;;;;;;;1.80;1.40;;;2.40;99.90;;;2.55;100.00;98716.97;5155777;27;38892;-79
2022/11/16 06:06:55;;;;;;;2.72;1.70;;;2.30;99.90;;;2.65;100.00;98716.91;5155832;27;39515;-77
2022/11/16 06:09:31;;;;;;;3.00;1.90;;;2.40;99.90;;;2.63;100.00;98724.44;5152444;27;42196;-76
2022/11/16 06:12:08;;;;;;;4.60;2.20;;;2.30;99.90;;;2.48;100.00;98703.88;5155837;27;40794;-78
2022/11/16 06:14:37;;;;;;;2.58;1.80;;;2.30;99.90;;;2.55;100.00;98710.81;5152425;27;40808;-78
2022/11/16 06:17:06;;;;;;;3.35;1.70;;;2.30;99.90;;;2.47;100.00;98721.03;5171004;27;40138;-77
2022/11/16 06:19:35;;;;;;;3.17;1.70;;;2.30;99.90;;;2.27;100.00;98721.13;5138098;27;41786;-78
2022/11/16 06:22:04;;;;;;;2.38;1.50;;;2.20;99.90;;;2.19;100.00;98716.38;5138153;27;40955;-75
2022/11/16 06:24:34;;;;;;;2.30;1.50;;;2.20;99.90;;;2.08;100.00;98724.44;5136652;27;40019;-78
2022/11/16 06:27:04;;;;;;;2.72;1.73;;;2.20;99.90;;;2.21;100.00;98719.56;5155205;27;41303;-77
2022/11/16 06:29:35;;;;;;;3.28;1.83;;;2.20;99.90;;;2.33;100.00;98720.03;5151529;27;42163;-78
2022/11/16 06:32:04;;;;;;;2.55;1.60;;;2.20;99.90;;;2.30;100.00;98725.94;5154849;27;41950;-77
2022/11/16 06:34:34;;;;;;;2.92;1.50;;;2.20;99.90;;;2.20;100.00;98731.34;5152250;27;40844;-78
2022/11/16 06:37:04;;;;;;;2.75;1.60;;;2.20;99.90;;;2.20;100.00;98726.81;5152099;27;39972;-78
2022/11/16 06:39:34;;;;;;;3.40;1.65;;;2.10;99.90;;;2.27;100.00;98721.13;5137730;27;41634;-79
2022/11/16 06:42:04;;;;;;;2.45;1.50;;;2.20;99.90;;;2.18;100.00;98736.16;5151881;27;41376;-77
2022/11/16 06:44:32;;;;;;;2.65;1.73;;;2.10;99.90;;;2.23;100.00;98736.13;5154716;27;39723;-78
2022/11/16 06:47:03;;;;;;;2.58;1.60;;;2.20;99.90;;;2.21;100.00;98738.28;5151970;27;40060;-77
2022/11/16 06:49:32;;;;;;;3.92;2.03;;;2.10;99.90;;;2.24;100.00;98737.75;5137351;27;41973;-77
2022/11/16 06:52:08;;;;;;;5.88;2.22;;;2.20;99.90;;;2.34;100.00;98743.06;5151758;27;41419;-79
2022/11/16 06:54:39;;;;;;;3.70;2.53;;;2.20;99.90;;;2.36;100.00;98743.59;5155143;27;40002;-80
2022/11/16 06:57:07;;;;;;;3.28;2.05;;;2.20;99.90;;;2.39;100.00;98740.34;5155023;27;39143;-79
2022/11/16 06:59:36;;;;;;;3.20;2.15;;;2.20;99.90;;;2.62;100.00;98748.81;5170032;27;41720;-76
2022/11/16 07:02:05;;;;;;;3.20;2.28;;;2.20;99.90;;;2.56;100.00;98749.91;5169599;27;42077;-79
2022/11/16 07:04:35;;;;;;;4.60;2.70;;;2.30;99.90;;;2.64;100.00;98752.00;5154360;27;39549;-77
2022/11/16 07:07:04;;;;;;;3.95;2.40;;;2.30;99.90;;;2.60;100.00;98751.78;5137502;27;39741;-80
2022/11/16 07:09:34;;;;;;;3.70;2.40;;;2.30;98.30;;;2.38;100.00;98752.13;5154404;27;41654;-79
2022/11/16 07:12:05;;;;;;;3.97;2.60;;;2.30;98.10;;;2.70;100.00;98751.69;5152160;27;44347;-78
2022/11/16 07:14:38;;;;;;;4.45;2.67;;;2.30;98.00;;;2.34;100.00;98751.09;5171272;27;41761;-78
2022/11/16 07:17:09;;;;;;;4.22;2.58;;;2.20;84.60;;;2.34;100.00;98753.78;5152271;27;40883;-79
2022/11/16 07:19:38;;;;;;;4.63;2.58;;;2.20;92.50;;;2.35;100.00;98755.38;5154038;27;42039;-77
2022/11/16 07:22:07;;;;;;;4.60;2.72;;;2.20;93.10;;;2.30;100.00;98752.72;5151191;27;41419;-77
2022/11/16 07:24:36;;;;;;;4.07;2.75;;;2.20;93.10;;;2.13;100.00;98753.84;5162733;27;40682;-74
2022/11/16 07:27:08;;;;;;;5.68;3.47;;;2.10;92.80;;;2.10;100.00;98759.78;5153787;27;39393;-78
2022/11/16 07:29:42;;;;;;;4.43;2.92;;;2.00;94.30;;;2.08;100.00;98753.88;5168348;27;41734;-76
2022/11/16 07:32:30;;;;;;;6.95;3.58;;;2.00;94.00;;;2.04;100.00;98760.88;5153868;27;41100;-79
2022/11/16 07:34:58;;;;;;;4.78;3.17;;;2.00;98.40;;;2.00;100.00;98749.09;5168821;27;40282;-76
2022/11/16 07:37:27;;;;;;;5.75;3.83;;;2.00;99.20;;;2.07;100.00;98763.00;5158171;27;39513;-79
2022/11/16 07:39:55;;;;;;;5.90;3.47;;;2.00;99.90;;;2.07;100.00;98754.97;5136017;27;40326;-79
2022/11/16 07:42:26;;;;;;;6.07;3.53;;;2.00;99.90;;;2.42;100.00;98761.22;5153861;27;41766;-76
2022/11/16 07:45:21;;;;;;;5.40;3.55;;;2.10;99.90;;;2.57;100.00;98762.22;5167995;27;40632;-78
2022/11/16 07:47:55;;;;;;;7.20;3.75;;;2.20;97.50;;;2.54;100.00;98760.09;5165725;27;40032;-79
2022/11/16 07:50:42;;;;;;;12.85;3.55;;;2.20;91.60;;;2.59;100.00;98765.44;5162911;27;41623;-79
2022/11/16 07:53:11;;;;;;;5.93;4.00;;;2.20;90.90;;;2.55;100.00;98762.50;5156293;27;42083;-79
2022/11/16 07:55:40;;;;;;;6.97;3.20;;;2.20;90.80;;;2.43;100.00;98768.19;5156600;27;40790;-79
2022/11/16 07:58:11;;;;;;;5.97;3.30;;;2.20;83.50;;;2.39;100.00;98772.50;5152461;27;40072;-80
2022/11/16 08:00:40;;;;;;;5.88;3.50;;;2.10;88.40;;;2.44;100.00;98769.78;5156679;27;41194;-78
2022/11/16 08:03:16;;;;;;;5.30;3.55;;;2.20;83.50;;;2.65;100.00;98765.13;5170584;27;41792;-78
2022/11/16 08:05:46;;;;;;;5.70;3.88;;;2.30;83.50;;;2.62;100.00;98775.59;5149751;27;40979;-79
2022/11/16 08:08:15;;;;;;;6.50;3.78;;;2.30;69.60;;;2.50;100.00;98774.03;5136696;27;40698;-79
2022/11/16 08:10:43;;;;;;;8.27;3.53;;;2.20;64.90;;;2.46;100.00;98777.53;5153613;27;41939;-78
2022/11/16 08:13:14;;;;;;;5.97;3.40;;;2.20;59.20;;;2.42;100.00;98784.53;5150035;27;41311;-78
2022/11/16 08:15:44;;;;;;;8.38;4.07;;;2.10;58.10;;;2.27;100.00;98790.75;5136203;27;39805;-76
2022/11/16 08:18:13;;;;;;;5.55;3.78;;;2.10;60.60;;;2.12;100.00;98789.75;5149863;27;40054;-79
2022/11/16 08:20:41;;;;;;;8.30;4.13;;;2.00;53.70;;;2.29;100.00;98789.41;5153408;27;42291;-78
2022/11/16 08:23:10;;;;;;;6.60;4.05;;;2.10;62.50;;;2.34;100.00;98792.06;5168575;27;41349;-79
2022/11/16 08:25:39;;;;;;;6.13;3.83;;;2.10;67.40;;;2.30;100.00;98796.34;5153779;27;39517;-78
2022/11/16 08:28:08;;;;;;;6.00;3.78;;;2.10;62.80;;;2.28;100.00;98793.16;5168827;27;39710;-75
2022/11/16 08:30:39;;;;;;;7.35;4.30;;;2.10;64.70;;;2.26;100.00;98800.66;5152887;27;40852;-77
2022/11/16 08:33:08;;;;;;;9.02;4.25;;;2.00;64.20;;;2.24;100.00;98802.00;5150032;27;41289;-78
2022/11/16 08:35:37;;;;;;;7.47;4.70;;;2.00;73.70;;;2.10;100.00;98802.59;5135394;27;40626;-79
2022/11/16 08:38:06;;;;;;;8.00;4.25;;;1.90;83.30;;;2.04;100.00;98809.03;5168340;27;40793;-79
2022/11/16 08:40:36;;;;;;;6.32;4.00;;;1.90;88.30;;;2.09;100.00;98816.25;5149012;27;42711;-76
2022/11/16 08:43:04;;;;;;;7.03;4.57;;;1.90;83.20;;;2.16;100.00;98809.50;5133924;27;42238;-79
2022/11/16 08:45:35;;;;;;;6.50;4.63;;;1.90;83.20;;;2.25;100.00;98808.97;5116293;27;20564;-78
2022/11/16 08:48:06;;;;;;;7.20;4.60;;;2.00;83.30;;;2.30;100.00;98806.28;5114812;27;40209;-77
2022/11/16 08:50:37;;;;;;;7.18;4.75;;;2.00;83.30;;;2.11;100.00;98814.91;5131847;27;42304;-76
2022/11/16 08:53:05;;;;;;;6.97;4.40;;;1.90;82.40;;;2.22;100.00;98809.53;5149426;27;39778;-77
2022/11/16 08:55:34;;;;;;;7.95;4.40;;;1.90;83.20;;;2.11;100.00;98820.25;5131278;27;41586;-77
2022/11/16 08:58:02;;;;;;;8.10;4.65;;;1.90;69.20;;;2.12;100.00;98807.66;5128744;27;40951;-80
2022/11/16 09:00:31;;;;;;;7.80;5.00;;;1.90;78.40;;;2.03;100.00;98812.00;5131389;27;41190;-79
2022/11/16 09:03:00;;;;;;;8.23;4.68;;;1.90;69.80;;;2.15;100.00;98815.97;5146947;27;42922;-79
2022/11/16 09:05:30;;;;;;;7.50;4.70;;;2.00;65.10;;;2.37;100.00;98819.34;5146876;27;40331;-79
2022/11/16 09:07:59;;;;;;;7.70;4.07;;;2.10;53.40;;;2.65;100.00;98815.22;5131513;27;38852;-80
2022/11/16 09:10:27;;;;;;;6.70;3.85;;;2.20;39.00;;;2.77;100.00;98830.97;5138603;27;40600;-77
2022/11/16 09:12:56;;;;;;;5.78;3.50;;;2.30;18.10;;;2.85;100.00;98817.81;5168881;27;41580;-77
2022/11/16 09:15:26;;;;;;;5.43;3.25;;;2.40;10.40;;;2.94;100.00;98814.53;5167822;27;40368;-77
2022/11/16 09:17:55;;;;;;;6.90;3.58;;;2.50;1.00;;;2.95;98.08;98821.50;5167503;27;39694;-80
2022/11/16 09:20:25;;;;;;;5.68;3.28;;;2.40;1.00;;;3.07;97.25;98813.91;5151539;27;41747;-80
2022/11/16 09:22:55;;;;;;;5.68;3.47;;;2.50;1.00;;;3.43;95.82;98821.69;5152440;27;41866;-80
2022/11/16 09:25:23;;;;;;;5.88;3.40;;;2.70;1.00;;;3.48;94.07;98824.34;5151909;27;39702;-74
2022/11/16 09:27:54;;;;;;;6.22;3.20;;;2.70;1.00;;;3.28;94.40;98819.13;5167299;27;39659;-75
2022/11/16 09:30:22;;;;;;;8.02;3.35;;;2.60;1.00;;;3.09;94.22;98805.59;5167523;27;42438;-77
2022/11/16 09:32:51;;;;;;;4.15;2.90;;;2.50;1.00;;;3.11;93.87;98820.31;5134736;27;39810;-79
2022/11/16 09:35:19;;;;;;;7.15;3.17;;;2.50;1.00;;;3.15;93.90;98817.91;5151816;27;39508;-76
2022/11/16 09:37:48;;;;;;;4.80;2.97;;;2.60;1.00;;;3.18;93.49;98810.09;5167624;27;41157;-78
2022/11/16 09:40:18;;;;;;;7.30;3.53;;;2.60;1.00;;;3.25;92.98;98817.81;5170306;27;42390;-80
2022/11/16 09:42:59;;;;;;;5.00;3.20;;;2.70;1.00;;;3.23;93.19;98812.72;5167734;27;42185;-81
2022/11/16 09:45:38;;;;;;;6.57;3.53;;;2.70;1.00;;;3.03;93.75;98808.28;5134682;27;40192;-79
2022/11/16 09:48:12;;;;;;;6.60;3.95;;;2.60;1.00;;;2.84;94.70;98813.50;5166496;27;42005;-77
2022/11/16 09:50:47;;;;;;;8.15;3.72;;;2.40;1.00;;;2.64;97.92;98821.66;5167622;27;42542;-79
2022/11/16 09:53:33;;;;;;;6.25;3.15;;;2.30;1.00;;;2.39;100.00;98814.56;5167408;27;42134;-79
2022/11/16 09:56:06;;;;;;;5.13;2.85;;;2.10;1.00;;;2.27;100.00;98817.53;5167447;27;41236;-80
2022/11/16 09:58:42;;;;;;;6.30;2.92;;;1.90;3.30;;;2.09;100.00;98822.41;5167129;27;40048;-81
2022/11/16 10:01:23;;;;;;;5.38;3.13;;;1.80;20.30;;;1.90;100.00;98830.22;5167100;27;41455;-77
2022/11/16 10:03:58;;;;;;;8.43;4.68;;;1.70;34.00;;;1.99;100.00;98817.06;5166993;27;41175;-81
2022/11/16 10:06:46;;;;;;;8.30;3.85;;;1.70;51.60;;;2.32;100.00;98820.19;5167035;27;40341;-79
2022/11/16 10:09:14;;;;;;;7.55;4.32;;;1.90;59.20;;;2.32;100.00;98814.81;5151726;27;38698;-79
2022/11/16 10:12:10;;;;;;;8.13;4.55;;;1.90;33.90;;;2.41;100.00;98828.47;5166863;27;42590;-79
2022/11/16 10:15:27;;;;;;;6.32;3.50;;;2.00;28.60;;;2.51;100.00;98823.88;5151791;27;41140;-79
2022/11/16 10:18:17;;;;;;;5.63;3.15;;;2.10;12.60;;;2.64;100.00;98816.31;5167101;27;40158;-78
2022/11/16 10:21:16;;;;;;;6.63;3.38;;;2.20;1.00;;;2.43;99.51;98827.13;5153527;27;39524;-78
2022/11/16 10:24:02;;;;;;;7.57;3.75;;;2.10;1.00;;;2.45;99.10;98818.81;5170874;27;43254;-78
2022/11/16 10:26:39;;;;;;;6.65;3.40;;;2.10;1.00;;;2.45;100.00;98824.97;5154928;27;40692;-81
2022/11/16 10:29:29;;;;;;;5.65;2.85;;;2.10;1.00;;;2.37;97.91;98822.84;5170691;27;40206;-78
2022/11/16 10:32:14;;;;;;;6.13;3.38;;;2.10;1.00;;;2.71;97.26;98816.78;5170815;27;40725;-78
2022/11/16 10:34:50;;;;;;;6.80;3.50;;;2.30;1.00;;;2.81;94.67;98832.03;5170902;27;42483;-78
2022/11/16 10:37:20;;;;;;;8.02;4.32;;;2.30;1.00;;;2.95;93.36;98821.50;5170626;27;42087;-79
2022/11/16 10:39:52;;;;;;;6.40;3.83;;;2.30;1.00;;;2.76;93.10;98814.09;5172265;27;41458;-78
2022/11/16 10:42:26;;;;;;;7.05;4.15;;;2.30;1.00;;;2.62;93.90;98829.19;5170953;27;40862;-81
2022/11/16 10:45:06;;;;;;;9.15;4.72;;;2.10;1.00;;;2.57;95.13;98824.66;5170354;27;42418;-79
2022/11/16 10:47:43;;;;;;;7.95;4.43;;;2.20;1.00;;;2.50;95.91;98835.66;5170721;27;41442;-78
2022/11/16 10:50:31;;;;;;;7.90;4.25;;;2.10;1.00;;;2.38;97.15;98829.78;5170556;27;40222;-80
2022/11/16 10:53:00;;;;;;;7.57;4.20;;;2.00;1.00;;;2.46;96.53;98831.09;5170489;27;41168;-80
2022/11/16 10:55:29;;;;;;;5.60;3.58;;;2.00;1.00;;;2.41;96.41;98834.59;5170603;27;41702;-80
2022/11/16 10:58:00;;;;;;;7.47;4.05;;;2.00;1.00;;;2.38;96.62;98835.16;5170648;27;41298;-78
2022/11/16 11:00:52;;;;;;;6.00;3.40;;;2.10;1.00;;;2.36;94.70;98831.97;5155003;27;40106;-78
2022/11/16 11:03:31;;;;;;;6.43;3.60;;;2.00;1.00;;;2.44;94.91;98834.06;5165940;27;40102;-78
2022/11/16 11:06:00;;;;;;;6.25;3.50;;;2.10;1.00;;;2.55;93.80;98839.38;5154145;27;41295;-80
2022/11/16 11:08:30;;;;;;;5.70;3.50;;;2.20;1.00;;;2.42;92.14;98841.56;5170275;27;42619;-80
2022/11/16 11:12:36;;;;;;;7.50;3.55;;;2.10;1.00;;;2.61;90.93;98849.78;5170140;27;40178;-78
2022/11/16 11:14:09;;;;;;;5.78;3.22;;;2.10;1.00;;;2.36;91.43;98845.34;5171567;27;39895;-80
2022/11/16 11:16:40;;;;;;;5.82;3.00;;;2.00;1.00;;;2.41;91.26;98844.53;5154486;27;40460;-77
2022/11/16 11:19:24;;;;;;;6.07;3.00;;;2.10;1.00;;;2.63;90.82;98849.53;5170061;27;42053;-80
2022/11/16 11:21:57;;;;;;;6.55;3.25;;;2.10;1.00;;;2.62;89.22;98850.63;5169972;27;41018;-80
2022/11/16 11:24:27;;;;;;;6.65;3.40;;;2.00;1.00;;;2.61;89.81;98849.78;5170210;27;40762;-80
2022/11/16 11:26:59;;;;;;;7.97;3.13;;;2.00;1.00;;;2.53;91.19;98846.91;5169808;27;41504;-79
2022/11/16 11:29:31;;;;;;;4.55;3.15;;;2.00;1.00;;;2.49;91.37;98852.00;5169623;27;41266;-79
2022/11/16 11:32:07;;;;;;;7.47;3.33;;;2.10;1.00;;;2.35;91.90;98846.41;5167921;27;41223;-78